Wetterdaten: Woche 16.10.17 - 22.10.17 (KW42)
Datum Zeit Temp. I. Temp. A. Feuchte I. Feuchte A. Luftdruck Regen Wind Richtung Sonnenschein UV Solar Taupunkt Windchill Windben
16.10.2017 00:00 23,5 C 8,1 C 64 % 92 % 1026,6 hPa 0,0 l/m 0,0 km/h (0 Bft) N 0,00 h 0,0 UV-I 0 W/m 6,8 C 8,1 C 0,0 km/h (0 Bft)
16.10.2017 01:00 23,4 C 7,2 C 65 % 92 % 1026,5 hPa 0,0 l/m 0,0 km/h (0 Bft) N 0,00 h 0,0 UV-I 0 W/m 6,0 C 7,2 C 0,0 km/h (0 Bft)
16.10.2017 02:00 23,3 C 6,6 C 66 % 93 % 1026,7 hPa 0,0 l/m 0,0 km/h (0 Bft) N 0,00 h 0,0 UV-I 0 W/m 5,5 C 6,6 C 0,0 km/h (0 Bft)
16.10.2017 03:00 23,3 C 6,0 C 66 % 93 % 1026,5 hPa 0,0 l/m 0,0 km/h (0 Bft) N 0,00 h 0,0 UV-I 0 W/m 5,0 C 6,0 C 0,0 km/h (0 Bft)
16.10.2017 04:00 23,2 C 5,5 C 67 % 93 % 1026,4 hPa 0,0 l/m 0,0 km/h (0 Bft) N 0,00 h 0,0 UV-I 0 W/m 4,5 C 5,5 C 0,0 km/h (0 Bft)
16.10.2017 05:00 23,1 C 5,1 C 67 % 93 % 1026,4 hPa 0,0 l/m 0,0 km/h (0 Bft) N 0,00 h 0,0 UV-I 0 W/m 4,0 C 5,1 C 0,0 km/h (0 Bft)
16.10.2017 06:00 23,0 C 4,6 C 66 % 94 % 1026,4 hPa 0,0 l/m 0,0 km/h (0 Bft) N 0,00 h 0,0 UV-I 0 W/m 3,7 C 4,6 C 0,0 km/h (0 Bft)
16.10.2017 07:00 22,9 C 4,5 C 65 % 95 % 1026,4 hPa 0,0 l/m 0,0 km/h (0 Bft) N 0,00 h 0,0 UV-I 9 W/m 3,7 C 4,5 C 0,0 km/h (0 Bft)
16.10.2017 08:00 18,9 C 4,8 C 54 % 95 % 1027,0 hPa 0,0 l/m 0,0 km/h (0 Bft) N 0,00 h 0,0 UV-I 36 W/m 4,1 C 4,8 C 0,0 km/h (0 Bft)
16.10.2017 09:00 17,2 C 8,6 C 60 % 94 % 1027,2 hPa 0,0 l/m 0,0 km/h (0 Bft) N 0,88 h 0,7 UV-I 209 W/m 7,7 C 8,6 C 0,0 km/h (0 Bft)
16.10.2017 10:00 18,7 C 13,7 C 63 % 87 % 1027,3 hPa 0,0 l/m 0,2 km/h (0 Bft) SO 1,00 h 1,3 UV-I 361 W/m 11,6 C 13,7 C 0,6 km/h (0 Bft)
16.10.2017 11:00 21,5 C 17,0 C 60 % 79 % 1026,9 hPa 0,0 l/m 2,1 km/h (1 Bft) S 1,00 h 2,0 UV-I 460 W/m 13,3 C 17,0 C 6,1 km/h (2 Bft)
16.10.2017 12:00 22,3 C 18,4 C 58 % 73 % 1026,7 hPa 0,0 l/m 3,4 km/h (1 Bft) S 1,00 h 2,4 UV-I 498 W/m 13,4 C 18,4 C 7,9 km/h (2 Bft)
16.10.2017 13:00 22,5 C 19,5 C 57 % 69 % 1026,5 hPa 0,0 l/m 3,8 km/h (1 Bft) S 1,00 h 2,3 UV-I 489 W/m 13,6 C 19,3 C 8,9 km/h (2 Bft)
16.10.2017 14:00 22,7 C 20,2 C 57 % 67 % 1026,0 hPa 0,0 l/m 2,7 km/h (1 Bft) S 1,00 h 1,9 UV-I 431 W/m 13,8 C 20,1 C 6,8 km/h (2 Bft)
16.10.2017 15:00 23,2 C 20,5 C 56 % 66 % 1025,8 hPa 0,0 l/m 1,5 km/h (1 Bft) S 1,00 h 1,2 UV-I 324 W/m 13,9 C 20,6 C 4,6 km/h (1 Bft)
16.10.2017 16:00 23,0 C 19,9 C 56 % 69 % 1025,7 hPa 0,0 l/m 0,9 km/h (0 Bft) S 0,68 h 0,7 UV-I 182 W/m 13,9 C 19,9 C 3,3 km/h (1 Bft)
16.10.2017 17:00 22,5 C 18,5 C 57 % 73 % 1025,7 hPa 0,0 l/m 0,3 km/h (0 Bft) S 0,00 h 0,0 UV-I 49 W/m 13,6 C 18,5 C 1,0 km/h (0 Bft)
16.10.2017 18:00 21,8 C 16,7 C 59 % 79 % 1025,9 hPa 0,0 l/m 0,0 km/h (0 Bft) N 0,00 h 0,0 UV-I 7 W/m 13,0 C 16,7 C 0,0 km/h (0 Bft)
16.10.2017 19:00 22,7 C 13,8 C 61 % 88 % 1026,3 hPa 0,0 l/m 0,0 km/h (0 Bft) N 0,00 h 0,0 UV-I 0 W/m 11,8 C 13,8 C 0,0 km/h (0 Bft)
16.10.2017 20:00 23,1 C 12,2 C 61 % 91 % 1026,5 hPa 0,0 l/m 0,0 km/h (0 Bft) N 0,00 h 0,0 UV-I 0 W/m 10,8 C 12,2 C 0,0 km/h (0 Bft)
16.10.2017 21:00 23,1 C 11,4 C 61 % 91 % 1026,4 hPa 0,0 l/m 0,0 km/h (0 Bft) N 0,00 h 0,0 UV-I 0 W/m 10,0 C 11,4 C 0,0 km/h (0 Bft)
16.10.2017 22:00 23,2 C 10,4 C 63 % 91 % 1026,5 hPa 0,0 l/m 0,0 km/h (0 Bft) N 0,00 h 0,0 UV-I 0 W/m 9,0 C 10,4 C 0,0 km/h (0 Bft)
16.10.2017 23:00 23,3 C 9,6 C 64 % 92 % 1026,6 hPa 0,0 l/m 0,0 km/h (0 Bft) N 0,00 h 0,0 UV-I 0 W/m 8,3 C 9,6 C 0,0 km/h (0 Bft)
17.10.2017 00:00 23,2 C 8,8 C 63 % 92 % 1026,4 hPa 0,0 l/m 0,0 km/h (0 Bft) N 0,00 h 0,0 UV-I 0 W/m 7,6 C 8,8 C 0,0 km/h (0 Bft)
17.10.2017 01:00 23,1 C 8,1 C 64 % 92 % 1026,2 hPa 0,0 l/m 0,0 km/h (0 Bft) N 0,00 h 0,0 UV-I 0 W/m 6,9 C 8,1 C 0,0 km/h (0 Bft)
17.10.2017 02:00 23,1 C 7,4 C 64 % 92 % 1026,1 hPa 0,0 l/m 0,0 km/h (0 Bft) N 0,00 h 0,0 UV-I 0 W/m 6,2 C 7,4 C 0,0 km/h (0 Bft)
17.10.2017 03:00 23,0 C 6,7 C 64 % 93 % 1025,7 hPa 0,0 l/m 0,0 km/h (0 Bft) N 0,00 h 0,0 UV-I 0 W/m 5,6 C 6,7 C 0,0 km/h (0 Bft)
17.10.2017 04:00 22,9 C 6,1 C 65 % 93 % 1025,6 hPa 0,0 l/m 0,0 km/h (0 Bft) N 0,00 h 0,0 UV-I 0 W/m 5,1 C 6,1 C 0,0 km/h (0 Bft)
17.10.2017 05:00 22,9 C 5,6 C 64 % 93 % 1025,5 hPa 0,0 l/m 0,0 km/h (0 Bft) N 0,00 h 0,0 UV-I 0 W/m 4,5 C 5,6 C 0,0 km/h (0 Bft)
17.10.2017 06:00 22,8 C 5,0 C 64 % 93 % 1025,3 hPa 0,0 l/m 0,0 km/h (0 Bft) N 0,00 h 0,0 UV-I 0 W/m 3,9 C 5,0 C 0,0 km/h (0 Bft)
17.10.2017 07:00 22,7 C 4,6 C 63 % 94 % 1025,3 hPa 0,0 l/m 0,0 km/h (0 Bft) N 0,00 h 0,0 UV-I 9 W/m 3,7 C 4,6 C 0,0 km/h (0 Bft)
17.10.2017 08:00 22,6 C 4,5 C 60 % 94 % 1025,6 hPa 0,0 l/m 0,0 km/h (0 Bft) N 0,00 h 0,0 UV-I 33 W/m 3,7 C 4,5 C 0,0 km/h (0 Bft)
17.10.2017 09:00 22,6 C 7,9 C 58 % 96 % 1025,6 hPa 0,0 l/m 0,0 km/h (0 Bft) N 0,88 h 0,7 UV-I 213 W/m 7,3 C 7,9 C 0,0 km/h (0 Bft)
17.10.2017 10:00 22,7 C 13,6 C 57 % 84 % 1025,4 hPa 0,0 l/m 0,0 km/h (0 Bft) N 1,00 h 1,3 UV-I 369 W/m 10,9 C 13,6 C 0,0 km/h (0 Bft)
17.10.2017 11:00 23,0 C 17,6 C 57 % 73 % 1025,0 hPa 0,0 l/m 0,0 km/h (0 Bft) N 1,00 h 2,0 UV-I 465 W/m 12,7 C 17,6 C 0,0 km/h (0 Bft)
17.10.2017 12:00 23,2 C 20,3 C 56 % 65 % 1024,3 hPa 0,0 l/m 0,1 km/h (0 Bft) S-SO 1,00 h 2,4 UV-I 508 W/m 13,6 C 20,3 C 0,5 km/h (0 Bft)
17.10.2017 13:00 23,3 C 21,8 C 54 % 54 % 1023,3 hPa 0,0 l/m 0,8 km/h (0 Bft) S 1,00 h 2,3 UV-I 500 W/m 12,0 C 21,8 C 2,9 km/h (1 Bft)
17.10.2017 14:00 23,4 C 22,6 C 52 % 52 % 1022,4 hPa 0,0 l/m 0,6 km/h (0 Bft) W-SW 1,00 h 1,9 UV-I 447 W/m 12,2 C 22,6 C 2,2 km/h (1 Bft)
17.10.2017 15:00 23,5 C 22,7 C 51 % 51 % 1021,5 hPa 0,0 l/m 0,6 km/h (0 Bft) W-SW 1,00 h 1,2 UV-I 348 W/m 11,9 C 22,7 C 2,3 km/h (1 Bft)
17.10.2017 16:00 23,5 C 22,4 C 50 % 53 % 1020,7 hPa 0,0 l/m 0,0 km/h (0 Bft) S 0,83 h 0,7 UV-I 208 W/m 12,3 C 22,4 C 1,1 km/h (1 Bft)
17.10.2017 17:00 23,4 C 20,5 C 52 % 60 % 1020,3 hPa 0,0 l/m 0,0 km/h (0 Bft) N 0,00 h 0,0 UV-I 54 W/m 12,4 C 20,5 C 0,2 km/h (0 Bft)
17.10.2017 18:00 23,2 C 16,6 C 53 % 77 % 1020,1 hPa 0,0 l/m 0,0 km/h (0 Bft) N 0,00 h 0,0 UV-I 7 W/m 12,5 C 16,6 C 0,0 km/h (0 Bft)
17.10.2017 19:00 23,4 C 13,5 C 55 % 87 % 1020,1 hPa 0,0 l/m 0,0 km/h (0 Bft) N 0,00 h 0,0 UV-I 0 W/m 11,4 C 13,5 C 0,0 km/h (0 Bft)
17.10.2017 20:00 23,3 C 12,0 C 57 % 90 % 1019,9 hPa 0,0 l/m 0,0 km/h (0 Bft) N 0,00 h 0,0 UV-I 0 W/m 10,5 C 12,0 C 0,0 km/h (0 Bft)
17.10.2017 21:00 23,1 C 10,7 C 57 % 91 % 1019,8 hPa 0,0 l/m 0,0 km/h (0 Bft) N 0,00 h 0,0 UV-I 0 W/m 9,2 C 10,7 C 0,0 km/h (0 Bft)
17.10.2017 22:00 23,1 C 9,7 C 58 % 90 % 1019,7 hPa 0,0 l/m 0,0 km/h (0 Bft) N 0,00 h 0,0 UV-I 0 W/m 8,1 C 9,7 C 0,0 km/h (0 Bft)
17.10.2017 23:00 23,3 C 8,7 C 60 % 91 % 1019,5 hPa 0,0 l/m 0,0 km/h (0 Bft) N 0,00 h 0,0 UV-I 0 W/m 7,3 C 8,7 C 0,0 km/h (0 Bft)
18.10.2017 00:00 23,2 C 7,9 C 61 % 91 % 1019,1 hPa 0,0 l/m 0,0 km/h (0 Bft) N 0,00 h 0,0 UV-I 0 W/m 6,5 C 7,9 C 0,0 km/h (0 Bft)
18.10.2017 01:00 23,2 C 7,0 C 61 % 91 % 1018,8 hPa 0,0 l/m 0,0 km/h (0 Bft) N 0,00 h 0,0 UV-I 0 W/m 5,7 C 7,0 C 0,0 km/h (0 Bft)
18.10.2017 02:00 23,2 C 6,3 C 62 % 92 % 1018,5 hPa 0,0 l/m 0,0 km/h (0 Bft) N 0,00 h 0,0 UV-I 0 W/m 5,1 C 6,3 C 0,0 km/h (0 Bft)
18.10.2017 03:00 23,2 C 5,8 C 62 % 92 % 1018,2 hPa 0,0 l/m 0,0 km/h (0 Bft) N 0,00 h 0,0 UV-I 0 W/m 4,6 C 5,8 C 0,0 km/h (0 Bft)
18.10.2017 04:00 23,1 C 5,3 C 62 % 93 % 1017,7 hPa 0,0 l/m 0,0 km/h (0 Bft) N 0,00 h 0,0 UV-I 0 W/m 4,3 C 5,3 C 0,0 km/h (0 Bft)
18.10.2017 05:00 22,5 C 4,9 C 64 % 93 % 1017,5 hPa 0,0 l/m 0,0 km/h (0 Bft) N 0,00 h 0,0 UV-I 0 W/m 3,8 C 4,9 C 0,0 km/h (0 Bft)
18.10.2017 06:00 22,6 C 4,3 C 63 % 93 % 1017,4 hPa 0,0 l/m 0,0 km/h (0 Bft) N 0,00 h 0,0 UV-I 0 W/m 3,3 C 4,3 C 0,0 km/h (0 Bft)
18.10.2017 07:00 22,8 C 4,0 C 61 % 94 % 1017,3 hPa 0,0 l/m 0,0 km/h (0 Bft) N 0,00 h 0,0 UV-I 9 W/m 3,1 C 4,0 C 0,0 km/h (0 Bft)
18.10.2017 08:00 19,4 C 4,3 C 54 % 95 % 1017,4 hPa 0,0 l/m 0,0 km/h (0 Bft) N 0,00 h 0,0 UV-I 39 W/m 3,5 C 4,3 C 0,0 km/h (0 Bft)
18.10.2017 09:00 15,5 C 6,2 C 60 % 96 % 1017,4 hPa 0,0 l/m 0,0 km/h (0 Bft) N 0,28 h 0,6 UV-I 137 W/m 5,6 C 6,2 C 0,0 km/h (0 Bft)
18.10.2017 10:00 17,0 C 10,1 C 61 % 90 % 1017,0 hPa 0,0 l/m 0,0 km/h (0 Bft) N 1,00 h 1,2 UV-I 318 W/m 8,5 C 10,1 C 0,0 km/h (0 Bft)
18.10.2017 11:00 19,4 C 14,0 C 59 % 82 % 1016,7 hPa 0,0 l/m 0,0 km/h (0 Bft) N 1,00 h 1,7 UV-I 361 W/m 10,9 C 14,0 C 0,0 km/h (0 Bft)
18.10.2017 12:00 20,5 C 17,0 C 60 % 76 % 1016,2 hPa 0,0 l/m 0,3 km/h (0 Bft) S 1,00 h 2,2 UV-I 480 W/m 12,7 C 17,0 C 0,7 km/h (0 Bft)
18.10.2017 13:00 21,6 C 18,5 C 59 % 73 % 1015,6 hPa 0,0 l/m 0,3 km/h (0 Bft) W-SW 1,00 h 2,1 UV-I 454 W/m 13,5 C 18,5 C 1,3 km/h (1 Bft)
18.10.2017 14:00 22,2 C 18,8 C 58 % 70 % 1015,0 hPa 0,0 l/m 0,2 km/h (0 Bft) SO 1,00 h 1,6 UV-I 349 W/m 13,3 C 18,8 C 0,9 km/h (0 Bft)
18.10.2017 15:00 21,9 C 18,2 C 59 % 73 % 1014,7 hPa 0,0 l/m 0,3 km/h (0 Bft) S 0,97 h 1,0 UV-I 237 W/m 13,2 C 18,2 C 1,7 km/h (1 Bft)
18.10.2017 16:00 21,9 C 18,8 C 59 % 72 % 1014,5 hPa 0,0 l/m 0,1 km/h (0 Bft) N 0,75 h 0,7 UV-I 227 W/m 13,6 C 18,8 C 0,7 km/h (0 Bft)
18.10.2017 17:00 22,2 C 17,2 C 59 % 77 % 1014,5 hPa 0,0 l/m 0,0 km/h (0 Bft) N 0,00 h 0,0 UV-I 22 W/m 13,1 C 17,2 C 0,1 km/h (0 Bft)
18.10.2017 18:00 22,8 C 14,5 C 61 % 85 % 1014,7 hPa 0,0 l/m 0,0 km/h (0 Bft) N 0,00 h 0,0 UV-I 7 W/m 12,0 C 14,5 C 0,0 km/h (0 Bft)
18.10.2017 19:00 23,0 C 12,1 C 63 % 90 % 1015,0 hPa 0,0 l/m 0,0 km/h (0 Bft) N 0,00 h 0,0 UV-I 0 W/m 10,6 C 12,1 C 0,0 km/h (0 Bft)
18.10.2017 20:00 22,7 C 10,3 C 63 % 92 % 1015,2 hPa 0,0 l/m 0,0 km/h (0 Bft) N 0,00 h 0,0 UV-I 0 W/m 9,0 C 10,3 C 0,0 km/h (0 Bft)
18.10.2017 21:00 22,6 C 9,3 C 63 % 92 % 1015,5 hPa 0,0 l/m 0,0 km/h (0 Bft) N 0,00 h 0,0 UV-I 0 W/m 8,2 C 9,3 C 0,0 km/h (0 Bft)
18.10.2017 22:00 22,6 C 8,4 C 64 % 92 % 1015,7 hPa 0,0 l/m 0,0 km/h (0 Bft) N 0,00 h 0,0 UV-I 0 W/m 7,2 C 8,4 C 0,0 km/h (0 Bft)
18.10.2017 23:00 22,9 C 7,2 C 65 % 92 % 1015,8 hPa 0,0 l/m 0,0 km/h (0 Bft) N 0,00 h 0,0 UV-I 0 W/m 6,0 C 7,2 C 0,0 km/h (0 Bft)
19.10.2017 00:00 22,9 C 6,2 C 66 % 92 % 1015,8 hPa 0,0 l/m 0,0 km/h (0 Bft) N 0,00 h 0,0 UV-I 0 W/m 5,0 C 6,2 C 0,0 km/h (0 Bft)
19.10.2017 01:00 22,9 C 5,7 C 67 % 93 % 1015,9 hPa 0,0 l/m 0,0 km/h (0 Bft) N 0,00 h 0,0 UV-I 0 W/m 4,7 C 5,7 C 0,0 km/h (0 Bft)
19.10.2017 02:00 22,8 C 5,8 C 67 % 94 % 1016,1 hPa 0,0 l/m 0,0 km/h (0 Bft) N 0,00 h 0,0 UV-I 0 W/m 4,9 C 5,8 C 0,0 km/h (0 Bft)
19.10.2017 03:00 22,8 C 5,9 C 67 % 95 % 1016,0 hPa 0,0 l/m 0,0 km/h (0 Bft) N 0,00 h 0,0 UV-I 0 W/m 5,1 C 5,9 C 0,0 km/h (0 Bft)
19.10.2017 04:00 22,8 C 5,0 C 66 % 95 % 1015,9 hPa 0,0 l/m 0,0 km/h (0 Bft) N 0,00 h 0,0 UV-I 0 W/m 4,2 C 5,0 C 0,0 km/h (0 Bft)
19.10.2017 05:00 22,7 C 5,1 C 66 % 96 % 1015,9 hPa 0,0 l/m 0,0 km/h (0 Bft) N 0,00 h 0,0 UV-I 0 W/m 4,4 C 5,1 C 0,0 km/h (0 Bft)
19.10.2017 06:00 22,7 C 4,9 C 66 % 96 % 1015,8 hPa 0,0 l/m 0,0 km/h (0 Bft) N 0,00 h 0,0 UV-I 0 W/m 4,3 C 4,9 C 0,0 km/h (0 Bft)
19.10.2017 07:00 22,7 C 4,6 C 64 % 96 % 1016,0 hPa 0,0 l/m 0,0 km/h (0 Bft) N 0,00 h 0,0 UV-I 7 W/m 4,0 C 4,6 C 0,0 km/h (0 Bft)
19.10.2017 08:00 20,0 C 4,6 C 58 % 96 % 1016,5 hPa 0,2 l/m 0,0 km/h (0 Bft) N 0,00 h 0,0 UV-I 32 W/m 4,0 C 4,6 C 0,0 km/h (0 Bft)
19.10.2017 09:00 14,5 C 5,5 C 62 % 97 % 1017,1 hPa 0,0 l/m 0,0 km/h (0 Bft) N 0,00 h 0,6 UV-I 86 W/m 5,0 C 5,5 C 0,0 km/h (0 Bft)
19.10.2017 10:00 14,7 C 6,9 C 65 % 97 % 1017,2 hPa 0,0 l/m 0,0 km/h (0 Bft) N 0,48 h 0,8 UV-I 168 W/m 6,5 C 6,9 C 0,0 km/h (0 Bft)
19.10.2017 11:00 16,2 C 10,4 C 66 % 94 % 1017,3 hPa 0,0 l/m 0,0 km/h (0 Bft) N 1,00 h 1,7 UV-I 422 W/m 9,4 C 10,4 C 0,0 km/h (0 Bft)
19.10.2017 12:00 18,0 C 15,0 C 63 % 80 % 1017,2 hPa 0,0 l/m 0,3 km/h (0 Bft) W-SW 1,00 h 2,2 UV-I 489 W/m 11,6 C 15,0 C 0,8 km/h (0 Bft)
19.10.2017 13:00 19,3 C 18,3 C 62 % 67 % 1016,4 hPa 0,0 l/m 0,5 km/h (0 Bft) S 1,00 h 2,2 UV-I 486 W/m 12,0 C 18,3 C 1,9 km/h (1 Bft)
19.10.2017 14:00 20,7 C 19,6 C 56 % 57 % 1015,9 hPa 0,0 l/m 2,4 km/h (1 Bft) W-SW 1,00 h 1,7 UV-I 427 W/m 10,9 C 19,6 C 5,8 km/h (2 Bft)
19.10.2017 15:00 21,2 C 19,8 C 52 % 54 % 1015,4 hPa 0,0 l/m 0,9 km/h (0 Bft) W-SW 0,90 h 1,1 UV-I 305 W/m 10,1 C 19,8 C 3,2 km/h (1 Bft)
19.10.2017 16:00 21,3 C 19,4 C 53 % 60 % 1015,0 hPa 0,0 l/m 0,0 km/h (0 Bft) N 0,72 h 0,6 UV-I 195 W/m 11,6 C 19,4 C 0,1 km/h (0 Bft)
19.10.2017 17:00 22,0 C 18,1 C 55 % 68 % 1014,7 hPa 0,0 l/m 0,0 km/h (0 Bft) N 0,00 h 0,0 UV-I 44 W/m 12,0 C 18,1 C 0,0 km/h (0 Bft)
19.10.2017 18:00 22,6 C 14,7 C 57 % 81 % 1015,1 hPa 0,0 l/m 0,0 km/h (0 Bft) N 0,00 h 0,0 UV-I 6 W/m 11,4 C 14,7 C 0,0 km/h (0 Bft)
19.10.2017 19:00 22,7 C 12,2 C 58 % 88 % 1015,4 hPa 0,0 l/m 0,0 km/h (0 Bft) N 0,00 h 0,0 UV-I 0 W/m 10,3 C 12,2 C 0,0 km/h (0 Bft)
19.10.2017 20:00 22,5 C 10,8 C 60 % 90 % 1015,4 hPa 0,0 l/m 0,0 km/h (0 Bft) N 0,00 h 0,0 UV-I 0 W/m 9,2 C 10,8 C 0,0 km/h (0 Bft)
19.10.2017 21:00 22,4 C 9,8 C 61 % 90 % 1015,6 hPa 0,0 l/m 0,0 km/h (0 Bft) N 0,00 h 0,0 UV-I 0 W/m 8,2 C 9,8 C 0,0 km/h (0 Bft)
19.10.2017 22:00 22,6 C 8,8 C 62 % 91 % 1015,9 hPa 0,0 l/m 0,0 km/h (0 Bft) N 0,00 h 0,0 UV-I 0 W/m 7,4 C 8,8 C 0,0 km/h (0 Bft)
19.10.2017 23:00 22,8 C 8,0 C 62 % 91 % 1015,7 hPa 0,0 l/m 0,0 km/h (0 Bft) N 0,00 h 0,0 UV-I 0 W/m 6,6 C 8,0 C 0,0 km/h (0 Bft)
20.10.2017 00:00 22,8 C 7,3 C 63 % 92 % 1015,5 hPa 0,0 l/m 0,0 km/h (0 Bft) N 0,00 h 0,0 UV-I 0 W/m 6,1 C 7,3 C 0,0 km/h (0 Bft)
20.10.2017 01:00 22,8 C 6,7 C 64 % 93 % 1015,4 hPa 0,0 l/m 0,0 km/h (0 Bft) N 0,00 h 0,0 UV-I 0 W/m 5,6 C 6,7 C 0,0 km/h (0 Bft)
20.10.2017 02:00 22,8 C 6,5 C 64 % 94 % 1015,4 hPa 0,0 l/m 0,0 km/h (0 Bft) N 0,00 h 0,0 UV-I 0 W/m 5,6 C 6,5 C 0,0 km/h (0 Bft)
20.10.2017 03:00 22,8 C 6,1 C 64 % 94 % 1015,3 hPa 0,0 l/m 0,0 km/h (0 Bft) N 0,00 h 0,0 UV-I 0 W/m 5,2 C 6,1 C 0,0 km/h (0 Bft)
20.10.2017 04:00 22,7 C 5,8 C 64 % 94 % 1015,0 hPa 0,0 l/m 0,2 km/h (0 Bft) O-NO 0,00 h 0,0 UV-I 0 W/m 5,0 C 5,8 C 0,9 km/h (0 Bft)
20.10.2017 05:00 22,6 C 5,6 C 64 % 95 % 1015,0 hPa 0,0 l/m 0,0 km/h (0 Bft) N 0,00 h 0,0 UV-I 0 W/m 4,8 C 5,6 C 0,0 km/h (0 Bft)
20.10.2017 06:00 22,5 C 5,4 C 63 % 95 % 1015,4 hPa 0,0 l/m 0,0 km/h (0 Bft) N 0,00 h 0,0 UV-I 0 W/m 4,7 C 5,4 C 0,0 km/h (0 Bft)
20.10.2017 07:00 22,6 C 5,6 C 63 % 95 % 1015,3 hPa 0,0 l/m 0,0 km/h (0 Bft) N 0,00 h 0,0 UV-I 6 W/m 4,9 C 5,6 C 0,0 km/h (0 Bft)
20.10.2017 08:00 22,7 C 6,5 C 62 % 96 % 1015,3 hPa 0,0 l/m 0,1 km/h (0 Bft) O-NO 0,00 h 0,0 UV-I 37 W/m 6,0 C 6,5 C 0,6 km/h (0 Bft)
20.10.2017 09:00 22,6 C 8,0 C 62 % 96 % 1015,6 hPa 0,0 l/m 0,1 km/h (0 Bft) NO 0,00 h 0,6 UV-I 90 W/m 7,4 C 8,0 C 0,5 km/h (0 Bft)
20.10.2017 10:00 22,4 C 11,2 C 62 % 90 % 1015,5 hPa 0,0 l/m 0,7 km/h (0 Bft) NO 0,63 h 1,0 UV-I 268 W/m 9,5 C 11,2 C 1,7 km/h (1 Bft)
20.10.2017 11:00 22,4 C 14,9 C 62 % 75 % 1015,6 hPa 0,0 l/m 0,3 km/h (0 Bft) SO 1,00 h 1,7 UV-I 445 W/m 10,4 C 14,9 C 0,6 km/h (0 Bft)
20.10.2017 12:00 22,7 C 16,7 C 61 % 67 % 1015,5 hPa 0,0 l/m 3,7 km/h (1 Bft) S 1,00 h 2,1 UV-I 487 W/m 10,6 C 16,4 C 7,6 km/h (2 Bft)
20.10.2017 13:00 22,8 C 16,6 C 60 % 68 % 1015,3 hPa 0,0 l/m 2,0 km/h (1 Bft) S 1,00 h 1,6 UV-I 308 W/m 10,6 C 16,5 C 5,1 km/h (1 Bft)
20.10.2017 14:00 22,9 C 17,0 C 59 % 68 % 1015,1 hPa 0,0 l/m 2,0 km/h (1 Bft) S 1,00 h 1,3 UV-I 254 W/m 11,1 C 17,0 C 5,6 km/h (1 Bft)
20.10.2017 15:00 23,0 C 16,7 C 59 % 71 % 1015,2 hPa 0,0 l/m 1,7 km/h (1 Bft) S 0,42 h 0,8 UV-I 154 W/m 11,5 C 16,7 C 5,2 km/h (1 Bft)
20.10.2017 16:00 23,0 C 16,1 C 59 % 75 % 1015,1 hPa 0,0 l/m 0,6 km/h (0 Bft) SW 0,27 h 0,5 UV-I 132 W/m 11,7 C 16,1 C 1,9 km/h (1 Bft)
20.10.2017 17:00 22,9 C 15,3 C 59 % 78 % 1015,3 hPa 0,0 l/m 0,0 km/h (0 Bft) N 0,00 h 0,0 UV-I 26 W/m 11,6 C 15,3 C 0,0 km/h (0 Bft)
20.10.2017 18:00 22,7 C 14,5 C 59 % 82 % 1015,4 hPa 0,0 l/m 0,0 km/h (0 Bft) N 0,00 h 0,0 UV-I 6 W/m 11,5 C 14,5 C 0,0 km/h (0 Bft)
20.10.2017 19:00 22,7 C 13,9 C 60 % 84 % 1015,8 hPa 0,0 l/m 0,0 km/h (0 Bft) N 0,00 h 0,0 UV-I 0 W/m 11,3 C 13,9 C 0,0 km/h (0 Bft)
20.10.2017 20:00 22,8 C 13,4 C 60 % 86 % 1015,8 hPa 0,0 l/m 0,0 km/h (0 Bft) N 0,00 h 0,0 UV-I 0 W/m 11,1 C 13,4 C 0,0 km/h (0 Bft)
20.10.2017 21:00 22,9 C 13,2 C 60 % 86 % 1016,0 hPa 0,0 l/m 0,0 km/h (0 Bft) N 0,00 h 0,0 UV-I 0 W/m 11,0 C 13,2 C 0,0 km/h (0 Bft)
20.10.2017 22:00 22,9 C 13,1 C 60 % 87 % 1016,3 hPa 0,0 l/m 0,3 km/h (0 Bft) W 0,00 h 0,0 UV-I 0 W/m 10,9 C 13,1 C 0,7 km/h (0 Bft)
20.10.2017 23:00 23,1 C 12,6 C 61 % 89 % 1016,5 hPa 0,0 l/m 0,9 km/h (0 Bft) W-SW 0,00 h 0,0 UV-I 0 W/m 10,8 C 12,6 C 3,1 km/h (1 Bft)
21.10.2017 00:00 23,2 C 12,5 C 62 % 89 % 1016,5 hPa 0,0 l/m 0,5 km/h (0 Bft) W-SW 0,00 h 0,0 UV-I 0 W/m 10,7 C 12,5 C 2,0 km/h (1 Bft)
21.10.2017 01:00 23,2 C 11,9 C 62 % 88 % 1016,7 hPa 0,0 l/m 3,2 km/h (1 Bft) SW 0,00 h 0,0 UV-I 0 W/m 9,9 C 11,9 C 9,0 km/h (2 Bft)
21.10.2017 02:00 23,3 C 11,1 C 63 % 87 % 1016,9 hPa 0,0 l/m 0,7 km/h (0 Bft) W-SW 0,00 h 0,0 UV-I 0 W/m 9,0 C 11,1 C 2,4 km/h (1 Bft)
21.10.2017 03:00 23,4 C 9,7 C 62 % 88 % 1016,7 hPa 0,0 l/m 0,0 km/h (0 Bft) N 0,00 h 0,0 UV-I 0 W/m 7,8 C 9,7 C 0,0 km/h (0 Bft)
21.10.2017 04:00 23,2 C 9,0 C 63 % 91 % 1016,6 hPa 0,0 l/m 0,0 km/h (0 Bft) N 0,00 h 0,0 UV-I 0 W/m 7,7 C 9,0 C 0,0 km/h (0 Bft)
21.10.2017 05:00 23,0 C 9,1 C 63 % 92 % 1016,5 hPa 0,0 l/m 0,0 km/h (0 Bft) N 0,00 h 0,0 UV-I 0 W/m 7,8 C 9,1 C 0,0 km/h (0 Bft)
21.10.2017 06:00 22,9 C 8,9 C 63 % 93 % 1016,4 hPa 0,0 l/m 0,0 km/h (0 Bft) N 0,00 h 0,0 UV-I 0 W/m 7,8 C 8,9 C 0,0 km/h (0 Bft)
21.10.2017 07:00 23,0 C 8,7 C 63 % 93 % 1016,2 hPa 0,0 l/m 0,0 km/h (0 Bft) N 0,00 h 0,0 UV-I 5 W/m 7,7 C 8,7 C 0,0 km/h (0 Bft)
21.10.2017 08:00 22,9 C 8,4 C 63 % 93 % 1016,5 hPa 0,0 l/m 0,0 km/h (0 Bft) N 0,00 h 0,0 UV-I 28 W/m 7,3 C 8,4 C 0,0 km/h (0 Bft)
21.10.2017 09:00 22,9 C 10,1 C 63 % 91 % 1016,7 hPa 0,0 l/m 0,5 km/h (0 Bft) SO 0,72 h 0,7 UV-I 205 W/m 8,7 C 10,1 C 1,4 km/h (1 Bft)
21.10.2017 10:00 22,9 C 12,1 C 63 % 85 % 1016,4 hPa 0,0 l/m 1,3 km/h (1 Bft) S 0,18 h 0,6 UV-I 135 W/m 9,7 C 12,1 C 3,4 km/h (1 Bft)
21.10.2017 11:00 22,5 C 13,4 C 61 % 81 % 1016,5 hPa 0,0 l/m 1,5 km/h (1 Bft) SW 0,68 h 1,4 UV-I 261 W/m 10,1 C 13,3 C 3,5 km/h (1 Bft)
21.10.2017 12:00 22,6 C 15,5 C 58 % 75 % 1016,0 hPa 0,0 l/m 4,7 km/h (1 Bft) S-SW 1,00 h 2,0 UV-I 411 W/m 11,0 C 15,3 C 10,6 km/h (2 Bft)
21.10.2017 13:00 22,7 C 15,7 C 57 % 71 % 1015,6 hPa 0,0 l/m 4,2 km/h (1 Bft) W-SW 0,47 h 1,1 UV-I 168 W/m 10,4 C 15,5 C 10,0 km/h (2 Bft)
21.10.2017 14:00 22,4 C 15,3 C 55 % 75 % 1015,5 hPa 0,0 l/m 4,0 km/h (1 Bft) W-SW 0,05 h 0,8 UV-I 104 W/m 10,8 C 15,1 C 9,7 km/h (2 Bft)
21.10.2017 15:00 21,6 C 15,2 C 56 % 78 % 1015,4 hPa 0,0 l/m 1,0 km/h (0 Bft) W-SW 0,00 h 0,5 UV-I 47 W/m 11,4 C 15,2 C 2,8 km/h (1 Bft)
21.10.2017 16:00 21,3 C 15,0 C 58 % 80 % 1015,1 hPa 0,0 l/m 0,0 km/h (0 Bft) N 0,00 h 0,0 UV-I 22 W/m 11,6 C 15,0 C 0,0 km/h (0 Bft)
21.10.2017 17:00 21,2 C 14,8 C 60 % 81 % 1014,9 hPa 0,0 l/m 0,0 km/h (0 Bft) N 0,00 h 0,0 UV-I 7 W/m 11,7 C 14,8 C 0,0 km/h (0 Bft)
21.10.2017 18:00 20,9 C 14,6 C 60 % 83 % 1014,9 hPa 0,0 l/m 0,0 km/h (0 Bft) N 0,00 h 0,0 UV-I 0 W/m 11,7 C 14,6 C 0,3 km/h (0 Bft)
21.10.2017 19:00 21,5 C 14,6 C 63 % 84 % 1014,8 hPa 0,0 l/m 0,3 km/h (0 Bft) S 0,00 h 0,0 UV-I 0 W/m 12,0 C 14,6 C 1,5 km/h (1 Bft)
21.10.2017 20:00 22,8 C 14,3 C 62 % 86 % 1014,3 hPa 0,0 l/m 0,0 km/h (0 Bft) N 0,00 h 0,0 UV-I 0 W/m 12,0 C 14,3 C 0,0 km/h (0 Bft)
21.10.2017 21:00 22,8 C 13,5 C 62 % 88 % 1013,8 hPa 0,0 l/m 0,0 km/h (0 Bft) N 0,00 h 0,0 UV-I 0 W/m 11,5 C 13,5 C 0,0 km/h (0 Bft)
21.10.2017 22:00 22,8 C 12,9 C 62 % 90 % 1013,6 hPa 0,0 l/m 0,0 km/h (0 Bft) N 0,00 h 0,0 UV-I 0 W/m 11,3 C 12,9 C 0,0 km/h (0 Bft)
21.10.2017 23:00 23,1 C 12,3 C 63 % 92 % 1013,5 hPa 5,2 l/m 1,8 km/h (1 Bft) W 0,00 h 0,0 UV-I 0 W/m 10,9 C 12,0 C 3,6 km/h (1 Bft)
22.10.2017 00:00 23,3 C 11,7 C 64 % 94 % 1014,9 hPa 3,8 l/m 5,3 km/h (1 Bft) W 0,00 h 0,0 UV-I 0 W/m 10,8 C 10,9 C 10,8 km/h (2 Bft)
22.10.2017 01:00 23,3 C 11,1 C 65 % 94 % 1014,8 hPa 0,0 l/m 0,0 km/h (0 Bft) N 0,00 h 0,0 UV-I 0 W/m 10,2 C 11,1 C 0,0 km/h (0 Bft)
22.10.2017 02:00 23,3 C 10,7 C 65 % 95 % 1015,1 hPa 0,0 l/m 1,1 km/h (0 Bft) SW 0,00 h 0,0 UV-I 0 W/m 9,9 C 10,6 C 2,8 km/h (1 Bft)
22.10.2017 03:00 23,3 C 9,7 C 66 % 94 % 1015,9 hPa 1,8 l/m 3,3 km/h (1 Bft) W-SW 0,00 h 0,0 UV-I 0 W/m 8,8 C 9,6 C 7,8 km/h (2 Bft)
22.10.2017 04:00 23,3 C 9,3 C 65 % 95 % 1015,8 hPa 1,2 l/m 4,6 km/h (1 Bft) SW 0,00 h 0,0 UV-I 0 W/m 8,5 C 9,0 C 9,9 km/h (2 Bft)
22.10.2017 05:00 23,3 C 9,1 C 66 % 95 % 1015,7 hPa 0,0 l/m 3,2 km/h (1 Bft) SW 0,00 h 0,0 UV-I 0 W/m 8,3 C 9,0 C 8,0 km/h (2 Bft)
22.10.2017 06:00 23,4 C 8,8 C 65 % 95 % 1015,4 hPa 0,0 l/m 3,1 km/h (1 Bft) S-SW 0,00 h 0,0 UV-I 0 W/m 8,1 C 8,8 C 7,2 km/h (2 Bft)
22.10.2017 07:00 22,6 C 8,7 C 61 % 94 % 1015,3 hPa 0,0 l/m 3,7 km/h (1 Bft) SW 0,00 h 0,0 UV-I 0 W/m 7,9 C 8,5 C 8,6 km/h (2 Bft)
22.10.2017 08:00 19,4 C 8,6 C 61 % 94 % 1015,6 hPa 0,0 l/m 3,7 km/h (1 Bft) SW 0,00 h 0,0 UV-I 17 W/m 7,7 C 8,6 C 8,9 km/h (2 Bft)
22.10.2017 09:00 18,7 C 8,7 C 62 % 93 % 1015,6 hPa 0,0 l/m 3,7 km/h (1 Bft) S-SW 0,00 h 0,0 UV-I 41 W/m 7,6 C 8,5 C 8,5 km/h (2 Bft)
22.10.2017 10:00 18,9 C 9,4 C 62 % 91 % 1015,5 hPa 0,2 l/m 4,0 km/h (1 Bft) SW 0,40 h 0,9 UV-I 192 W/m 8,0 C 9,2 C 10,1 km/h (2 Bft)
22.10.2017 11:00 20,4 C 10,0 C 55 % 86 % 1015,2 hPa 0,0 l/m 4,2 km/h (1 Bft) W-SW 0,25 h 0,9 UV-I 172 W/m 7,7 C 9,7 C 9,8 km/h (2 Bft)
22.10.2017 12:00 20,0 C 9,3 C 54 % 87 % 1015,2 hPa 0,2 l/m 4,8 km/h (1 Bft) W-SW 0,28 h 0,9 UV-I 140 W/m 7,2 C 8,7 C 10,3 km/h (2 Bft)
22.10.2017 13:00 20,1 C 9,6 C 52 % 84 % 1014,9 hPa 0,0 l/m 3,4 km/h (1 Bft) W-SW 0,23 h 0,9 UV-I 146 W/m 7,0 C 9,6 C 7,9 km/h (2 Bft)
22.10.2017 14:00 20,0 C 10,1 C 51 % 78 % 1014,5 hPa 0,0 l/m 5,3 km/h (1 Bft) W-SW 0,47 h 1,0 UV-I 182 W/m 6,4 C 9,7 C 11,5 km/h (2 Bft)
22.10.2017 15:00 20,6 C 9,7 C 50 % 76 % 1014,0 hPa 0,0 l/m 5,4 km/h (1 Bft) SW 0,02 h 0,7 UV-I 100 W/m 5,6 C 9,3 C 11,6 km/h (2 Bft)
22.10.2017 16:00 21,8 C 9,4 C 53 % 76 % 1014,1 hPa 0,0 l/m 3,9 km/h (1 Bft) SW 0,00 h 0,0 UV-I 39 W/m 5,5 C 9,3 C 8,5 km/h (2 Bft)
22.10.2017 17:00 22,0 C 9,1 C 54 % 78 % 1014,1 hPa 0,0 l/m 2,4 km/h (1 Bft) W-SW 0,00 h 0,0 UV-I 20 W/m 5,5 C 9,0 C 5,7 km/h (1 Bft)
22.10.2017 18:00 22,1 C 8,3 C 55 % 84 % 1014,3 hPa 0,2 l/m 2,5 km/h (1 Bft) S 0,00 h 0,0 UV-I 0 W/m 5,7 C 8,3 C 5,3 km/h (1 Bft)
22.10.2017 19:00 22,3 C 7,5 C 56 % 88 % 1014,6 hPa 0,0 l/m 3,7 km/h (1 Bft) S 0,00 h 0,0 UV-I 0 W/m 5,6 C 7,4 C 7,8 km/h (2 Bft)
22.10.2017 20:00 22,6 C 7,0 C 56 % 90 % 1014,7 hPa 0,0 l/m 3,1 km/h (1 Bft) S-SW 0,00 h 0,0 UV-I 0 W/m 5,5 C 7,0 C 6,5 km/h (2 Bft)
22.10.2017 21:00 22,4 C 7,1 C 57 % 92 % 1014,8 hPa 0,0 l/m 5,4 km/h (1 Bft) SW 0,00 h 0,0 UV-I 0 W/m 5,8 C 6,5 C 10,3 km/h (2 Bft)
22.10.2017 22:00 22,5 C 7,1 C 58 % 91 % 1015,2 hPa 0,0 l/m 6,4 km/h (2 Bft) W-SW 0,00 h 0,0 UV-I 0 W/m 5,6 C 6,2 C 11,9 km/h (2 Bft)
22.10.2017 23:00 22,7 C 7,1 C 59 % 90 % 1015,4 hPa 0,0 l/m 5,1 km/h (1 Bft) W-SW 0,00 h 0,0 UV-I 0 W/m 5,5 C 6,8 C 10,3 km/h (2 Bft)
Min-Datum _ 19.10.17 22.10.17 18.10.17 17.10.17 21.10.17 - 16.10.17 - - - - 18.10.17 22.10.17 16.10.17
_ Min-Zeit 09:49 07:53 08:18 15:37 23:17 - 00:00 - - - - 07:28 22:08 00:00
Minimum _ 14,3 C 0,0 C 43 % 48 % 1013,2 hPa - 0,0 km/h (0 Bft) - - - - 3,0 C 1,7 C 0,0 km/h (0 Bft)
Max-Datum _ 16.10.17 17.10.17 16.10.17 19.10.17 16.10.17 21.10.17 22.10.17 - 16.10.17 21.10.17 21.10.17 16.10.17 17.10.17 21.10.17
_ Max-Zeit 00:01 14:34 03:43 11:02 09:56 23:44 00:00 - 14:11 12:56 12:56 15:25 14:34 23:59
Maximum _ 23,5 C 22,9 C 67 % 98 % 1027,5 hPa 5,2 l/m 22,5 km/h
W (4 Bft)
- 0,03 h 2,6 UV-I 610 W/m 14,7 C 22,9 C 30,6 km/h
W (5 Bft)
Durchschnitt _ 22,2 C 11,1 C 60 % 86 % 1018,3 hPa #12,8 l/m 0,9 km/h (0 Bft) W-SW #38:27 h 1,3 UV-I 200 W/m 8,6 C 11,0 C 2,1 km/h (1 Bft)